createdAt,value
2023-02-14T00:02:38.689Z,100107.38
2023-02-14T00:05:45.590Z,100102.16
2023-02-14T00:08:54.363Z,100102.81
2023-02-14T00:12:01.166Z,100101.28
2023-02-14T00:15:20.105Z,100106.50
2023-02-14T00:18:50.180Z,100099.41
2023-02-14T00:21:56.588Z,100105.28
2023-02-14T00:25:03.943Z,100116.16
2023-02-14T00:28:09.801Z,100110.84
2023-02-14T00:31:16.482Z,100108.53
2023-02-14T00:34:25.633Z,100114.03
2023-02-14T00:37:32.461Z,100112.38
2023-02-14T00:40:38.198Z,100110.50
2023-02-14T00:43:44.757Z,100114.38
2023-02-14T00:46:50.642Z,100112.63
2023-02-14T00:50:03.012Z,100121.38
2023-02-14T00:53:08.866Z,100115.84
2023-02-14T00:56:16.439Z,100108.41
2023-02-14T00:59:22.422Z,100118.41
2023-02-14T01:02:29.053Z,100116.09
2023-02-14T01:05:37.501Z,100117.69
2023-02-14T01:08:44.449Z,100123.53
2023-02-14T01:11:50.227Z,100103.94
2023-02-14T01:14:57.024Z,100107.59
2023-02-14T01:18:03.622Z,100108.88
2023-02-14T01:21:20.952Z,100108.66
2023-02-14T01:24:27.707Z,100101.47
2023-02-14T01:27:34.333Z,100104.72
2023-02-14T01:30:40.254Z,100100.25
2023-02-14T01:33:51.990Z,100086.56
2023-02-14T01:37:00.421Z,100097.09
2023-02-14T01:40:08.807Z,100092.91
2023-02-14T01:43:21.902Z,100090.41
2023-02-14T01:46:30.795Z,100087.66
2023-02-14T01:49:44.108Z,100075.69
2023-02-14T01:53:00.798Z,100077.13
2023-02-14T01:56:15.678Z,100079.81
2023-02-14T01:59:29.463Z,100078.06
2023-02-14T02:02:35.262Z,100067.84
2023-02-14T02:05:51.402Z,100074.69
2023-02-14T02:09:15.252Z,100071.28
2023-02-14T02:12:22.292Z,100065.41
2023-02-14T02:15:34.305Z,100068.53
2023-02-14T02:19:11.368Z,100064.41
2023-02-14T02:23:10.332Z,100070.88
2023-02-14T02:27:11.547Z,100056.38
2023-02-14T02:31:10.832Z,100069.19
2023-02-14T02:35:15.192Z,100066.03
2023-02-14T02:38:50.104Z,100075.53
2023-02-14T02:42:17.872Z,100079.81
2023-02-14T02:46:05.067Z,100079.81
2023-02-14T02:49:38.941Z,100076.34
2023-02-14T02:53:06.459Z,100081.88
2023-02-14T02:56:37.812Z,100082.81
2023-02-14T02:59:48.941Z,100087.72
2023-02-14T03:03:13.344Z,100082.59
2023-02-14T03:06:19.125Z,100080.81
2023-02-14T03:10:00.433Z,100078.69
2023-02-14T03:13:34.602Z,100072.53
2023-02-14T03:17:07.908Z,100071.31
2023-02-14T03:20:26.240Z,100068.63
2023-02-14T03:23:41.936Z,100068.78
2023-02-14T03:27:00.168Z,100072.88
2023-02-14T03:30:21.373Z,100075.50
2023-02-14T03:33:42.113Z,100075.13
2023-02-14T03:36:59.326Z,100078.03
2023-02-14T03:40:14.017Z,100080.66
2023-02-14T03:43:33.826Z,100090.13
2023-02-14T03:46:48.718Z,100091.91
2023-02-14T03:50:05.248Z,100081.41
2023-02-14T03:53:16.263Z,100086.25
2023-02-14T03:56:35.344Z,100079.53
2023-02-14T03:59:45.885Z,100093.66
2023-02-14T04:03:02.947Z,100088.69
2023-02-14T04:06:09.580Z,100088.69
2023-02-14T04:09:16.401Z,100079.91
2023-02-14T04:12:35.941Z,100086.09
2023-02-14T04:15:46.980Z,100085.13
2023-02-14T04:19:04.992Z,100082.13
2023-02-14T04:22:11.564Z,100081.75
2023-02-14T04:25:17.905Z,100077.72
2023-02-14T04:28:24.583Z,100073.16
2023-02-14T04:31:33.260Z,100069.41
2023-02-14T04:34:41.027Z,100083.91
2023-02-14T04:37:46.859Z,100077.44
2023-02-14T04:40:54.145Z,100070.31
2023-02-14T04:43:59.918Z,100089.13
2023-02-14T04:47:10.607Z,100093.72
2023-02-14T04:50:17.624Z,100093.63
2023-02-14T04:53:24.659Z,100087.53
2023-02-14T04:56:30.595Z,100088.28
2023-02-14T04:59:37.478Z,100087.13
2023-02-14T05:02:45.816Z,100099.91
2023-02-14T05:05:52.489Z,100088.91
2023-02-14T05:08:58.600Z,100106.53
2023-02-14T05:12:05.377Z,100106.09
2023-02-14T05:15:12.703Z,100106.81
2023-02-14T05:18:21.999Z,100114.91
2023-02-14T05:21:28.651Z,100107.69
2023-02-14T05:24:35.332Z,100106.28
2023-02-14T05:27:41.133Z,100110.41
2023-02-14T05:30:50.139Z,100087.81
2023-02-14T05:33:58.546Z,100114.63
2023-02-14T05:37:05.371Z,100117.69
2023-02-14T05:40:14.065Z,100117.34
2023-02-14T05:43:20.612Z,100121.25
2023-02-14T05:46:26.351Z,100123.22
2023-02-14T05:49:35.486Z,100122.09
2023-02-14T05:52:41.690Z,100124.88
2023-02-14T05:55:48.312Z,100116.16
2023-02-14T05:58:54.036Z,100119.13
2023-02-14T06:02:00.625Z,100122.72
2023-02-14T06:05:11.853Z,100130.53
2023-02-14T06:08:18.489Z,100130.44
2023-02-14T06:11:24.309Z,100125.31
2023-02-14T06:14:30.931Z,100136.50
2023-02-14T06:17:36.809Z,100137.97
2023-02-14T06:20:46.040Z,100137.34
2023-02-14T06:23:51.826Z,100138.09
2023-02-14T06:26:58.386Z,100143.31
2023-02-14T06:30:04.830Z,100140.69
2023-02-14T06:33:11.560Z,100135.38
2023-02-14T06:36:20.398Z,100131.56
2023-02-14T06:39:27.192Z,100136.97
2023-02-14T06:42:32.973Z,100141.16
2023-02-14T06:45:39.586Z,100149.63
2023-02-14T06:48:45.806Z,100145.81
2023-02-14T06:51:55.121Z,100138.63
2023-02-14T06:55:00.962Z,100146.06
2023-02-14T06:58:07.849Z,100147.84
2023-02-14T07:01:13.755Z,100153.34
2023-02-14T07:04:20.725Z,100153.06
2023-02-14T07:07:29.266Z,100150.47
2023-02-14T07:10:36.014Z,100138.94
2023-02-14T07:13:41.841Z,100152.25
2023-02-14T07:16:48.538Z,100145.81
2023-02-14T07:19:54.269Z,100163.69
2023-02-14T07:23:04.721Z,100163.69
2023-02-14T07:26:10.814Z,100160.88
2023-02-14T07:29:18.671Z,100148.97
2023-02-14T07:32:25.911Z,100150.38
2023-02-14T07:35:33.239Z,100155.88
2023-02-14T07:38:41.722Z,100163.69
2023-02-14T07:41:48.330Z,100161.63
2023-02-14T07:44:57.712Z,100170.19
2023-02-14T07:48:04.796Z,100157.81
2023-02-14T07:51:11.355Z,100161.91
2023-02-14T07:54:21.226Z,100156.78
2023-02-14T08:00:48.290Z,100157.81
2023-02-14T08:03:54.540Z,100156.16
2023-02-14T08:07:01.195Z,100156.97
2023-02-14T08:10:12.990Z,100161.16
2023-02-14T08:13:19.926Z,100159.13
2023-02-14T08:16:25.856Z,100157.25
2023-02-14T08:19:33.504Z,100163.88
2023-02-14T08:22:39.336Z,100165.34
2023-02-14T08:25:48.708Z,100164.22
2023-02-14T08:28:54.628Z,100167.28
2023-02-14T08:32:01.937Z,100177.31
2023-02-14T08:35:08.152Z,100164.38
2023-02-14T08:38:15.039Z,100159.88
2023-02-14T08:41:23.530Z,100171.72
2023-02-14T08:44:30.407Z,100173.09
2023-02-14T08:47:38.656Z,100169.06
2023-02-14T08:50:45.897Z,100175.34
2023-02-14T08:53:57.052Z,100187.66
2023-02-14T08:57:06.861Z,100185.19
2023-02-14T09:00:15.359Z,100184.31
2023-02-14T09:03:22.787Z,100181.44
2023-02-14T09:06:29.849Z,100178.22
2023-02-14T09:09:37.543Z,100175.69
2023-02-14T09:12:46.265Z,100180.69
2023-02-14T09:15:55.441Z,100193.97
2023-02-14T09:19:01.409Z,100179.56
2023-02-14T09:22:11.216Z,100179.69
2023-02-14T09:25:16.998Z,100178.25
2023-02-14T09:28:26.159Z,100174.31
2023-02-14T09:31:31.995Z,100180.47
2023-02-14T09:34:39.380Z,100184.97
2023-02-14T09:37:45.107Z,100191.47
2023-02-14T09:40:54.725Z,100190.31
2023-02-14T09:44:10.218Z,100190.56
2023-02-14T09:47:31.998Z,100194.22
2023-02-14T09:50:48.924Z,100200.91
2023-02-14T09:54:07.121Z,100194.31
2023-02-14T09:57:30.727Z,100178.19
2023-02-14T10:00:51.831Z,100168.56
2023-02-14T10:04:28.639Z,100177.88
2023-02-14T10:07:53.281Z,100187.31
2023-02-14T10:11:11.685Z,100185.81
2023-02-14T10:14:26.230Z,100176.63
2023-02-14T10:17:47.165Z,100172.44
2023-02-14T10:21:00.772Z,100178.31
2023-02-14T10:24:21.050Z,100184.31
2023-02-14T10:27:39.771Z,100186.00
2023-02-14T10:31:01.670Z,100187.81
2023-02-14T10:34:25.464Z,100184.59
2023-02-14T10:38:01.022Z,100178.72
2023-02-14T10:41:30.177Z,100180.28
2023-02-14T10:44:57.276Z,100183.84
2023-02-14T10:48:23.295Z,100179.97
2023-02-14T10:51:46.923Z,100179.13
2023-02-14T10:55:00.108Z,100173.88
2023-02-14T10:58:13.019Z,100172.22
2023-02-14T11:01:22.606Z,100171.97
2023-02-14T11:04:29.143Z,100154.91
2023-02-14T11:07:39.845Z,100155.31
2023-02-14T11:10:46.138Z,100126.34
2023-02-14T11:13:53.656Z,100150.69
2023-02-14T11:17:01.937Z,100157.63
2023-02-14T11:20:30.668Z,100147.94
2023-02-14T11:23:44.104Z,100153.38
2023-02-14T11:26:55.732Z,100152.00
2023-02-14T11:30:03.264Z,100117.44
2023-02-14T11:33:15.732Z,100145.06
2023-02-14T11:36:21.808Z,100135.81
2023-02-14T11:39:37.106Z,100109.38
2023-02-14T11:42:51.646Z,100100.31
2023-02-14T11:46:19.190Z,100091.06
2023-02-14T11:49:35.050Z,100113.97
2023-02-14T11:52:54.992Z,100135.91
2023-02-14T11:56:03.914Z,100138.53
2023-02-14T11:59:23.574Z,100119.84
2023-02-14T12:02:43.562Z,100119.16
2023-02-14T12:05:57.429Z,100120.59
2023-02-14T12:09:16.249Z,100111.25
2023-02-14T12:12:29.160Z,100108.44
2023-02-14T12:15:40.893Z,100112.78
2023-02-14T12:19:02.501Z,100102.81
2023-02-14T12:22:10.345Z,100111.22
2023-02-14T12:25:25.698Z,100103.50
2023-02-14T12:28:46.068Z,100097.91
2023-02-14T12:31:53.501Z,100097.72
2023-02-14T12:35:16.276Z,100103.50
2023-02-14T12:38:44.787Z,100099.25
2023-02-14T12:42:07.954Z,100092.75
2023-02-14T12:45:30.276Z,100085.75
2023-02-14T12:49:03.278Z,100090.63
2023-02-14T12:52:41.389Z,100086.09
2023-02-14T12:56:06.712Z,100086.34
2023-02-14T12:59:35.304Z,100085.34
2023-02-14T13:03:44.202Z,100081.16
2023-02-14T13:07:00.490Z,100080.28
2023-02-14T13:10:30.155Z,100073.63
2023-02-14T13:14:04.565Z,100076.56
2023-02-14T13:17:27.418Z,100075.06
2023-02-14T13:20:52.454Z,100059.63
2023-02-14T13:24:14.099Z,100060.66
2023-02-14T13:27:30.391Z,100062.63
2023-02-14T13:30:42.258Z,100055.06
2023-02-14T13:33:55.600Z,100060.94
2023-02-14T13:37:12.554Z,100060.00
2023-02-14T13:40:26.762Z,100053.88
2023-02-14T13:43:53.131Z,100049.91
2023-02-14T13:47:00.054Z,100065.47
2023-02-14T13:50:09.480Z,100057.41
2023-02-14T13:53:41.896Z,100055.03
2023-02-14T13:56:47.768Z,100065.97
2023-02-14T14:00:38.316Z,100057.88
2023-02-14T14:04:01.957Z,100061.63
2023-02-14T14:07:30.180Z,100067.13
2023-02-14T14:10:51.853Z,100059.78
2023-02-14T14:14:01.972Z,100069.94
2023-02-14T14:17:28.388Z,100062.63
2023-02-14T14:20:52.667Z,100058.31
2023-02-14T14:24:28.284Z,100049.03
2023-02-14T14:27:44.956Z,100053.22
2023-02-14T14:30:51.895Z,100061.47
2023-02-14T14:34:04.287Z,100061.81
2023-02-14T14:37:21.353Z,100064.63
2023-02-14T14:40:32.188Z,100065.91
2023-02-14T14:43:43.856Z,100063.09
2023-02-14T14:46:53.931Z,100069.72
2023-02-14T14:50:10.864Z,100063.16
2023-02-14T14:53:29.406Z,100064.75
2023-02-14T14:56:42.362Z,100061.09
2023-02-14T14:59:52.219Z,100057.13
2023-02-14T15:03:09.761Z,100065.91
2023-02-14T15:06:23.137Z,100061.84
2023-02-14T15:09:36.384Z,100062.19
2023-02-14T15:12:56.542Z,100048.91
2023-02-14T15:16:05.778Z,100053.47
2023-02-14T15:19:22.567Z,100035.72
2023-02-14T15:22:34.000Z,100049.50
2023-02-14T15:25:44.759Z,100053.28
2023-02-14T15:29:01.306Z,100042.94
2023-02-14T15:32:15.439Z,100058.19
2023-02-14T15:35:32.104Z,100059.97
2023-02-14T15:38:45.206Z,100060.72
2023-02-14T15:41:51.154Z,100061.13
2023-02-14T15:45:25.604Z,100058.41
2023-02-14T15:48:38.016Z,100063.44
2023-02-14T15:51:50.533Z,100069.50
2023-02-14T15:54:56.454Z,100063.09
2023-02-14T15:58:09.894Z,100043.38
2023-02-14T16:01:16.929Z,100065.47
2023-02-14T16:04:33.277Z,100063.50
2023-02-14T16:07:39.203Z,100069.03
2023-02-14T16:10:46.270Z,100069.25
2023-02-14T16:13:52.084Z,100069.25
2023-02-14T16:17:04.822Z,100081.06
2023-02-14T16:20:45.472Z,100082.69
2023-02-14T16:24:16.018Z,100067.34
2023-02-14T16:27:21.863Z,100089.16
2023-02-14T16:30:28.927Z,100090.31
2023-02-14T16:33:40.111Z,100090.00
2023-02-14T16:36:49.656Z,100091.59
2023-02-14T16:39:59.567Z,100100.16
2023-02-14T16:43:09.507Z,100069.63
2023-02-14T16:46:17.709Z,100097.13
2023-02-14T16:49:25.591Z,100097.50
2023-02-14T16:52:34.486Z,100105.13
2023-02-14T16:55:42.701Z,100092.97
2023-02-14T16:58:50.380Z,100098.69
2023-02-14T17:02:02.872Z,100097.88
2023-02-14T17:05:10.131Z,100090.25
2023-02-14T17:08:20.720Z,100064.84
2023-02-14T17:11:31.080Z,100097.97
2023-02-14T17:14:42.729Z,100102.78
2023-02-14T17:17:52.204Z,100105.38
2023-02-14T17:20:59.435Z,100107.78
2023-02-14T17:24:08.819Z,100096.09
2023-02-14T17:27:15.564Z,100091.38
2023-02-14T17:30:23.343Z,100099.84
2023-02-14T17:33:30.693Z,100075.03
2023-02-14T17:36:36.887Z,100105.00
2023-02-14T17:39:46.268Z,100103.44
2023-02-14T17:42:52.206Z,100105.41
2023-02-14T17:45:58.880Z,100096.84
2023-02-14T17:49:05.480Z,100101.75
2023-02-14T17:52:12.322Z,100109.06
2023-02-14T17:55:21.041Z,100115.13
2023-02-14T17:58:27.754Z,100106.44
2023-02-14T18:01:36.375Z,100108.97
2023-02-14T18:04:43.205Z,100108.22
2023-02-14T18:07:48.960Z,100113.16
2023-02-14T18:10:58.977Z,100101.69
2023-02-14T18:14:04.980Z,100109.19
2023-02-14T18:17:11.848Z,100095.53
2023-02-14T18:20:17.687Z,100107.84
2023-02-14T18:23:25.003Z,100114.84
2023-02-14T18:26:34.683Z,100087.47
2023-02-14T18:29:41.608Z,100103.00
2023-02-14T18:32:47.995Z,100098.13
2023-02-14T18:35:54.564Z,100093.22
2023-02-14T18:39:01.185Z,100094.88
2023-02-14T18:42:10.468Z,100081.22
2023-02-14T18:45:16.405Z,100089.78
2023-02-14T18:48:23.146Z,100090.69
2023-02-14T18:51:33.502Z,100095.00
2023-02-14T18:54:40.539Z,100093.72
2023-02-14T18:57:49.052Z,100094.34
2023-02-14T19:00:56.679Z,100095.28
2023-02-14T19:04:06.206Z,100094.88
2023-02-14T19:07:15.715Z,100088.28
2023-02-14T19:10:22.070Z,100077.97
2023-02-14T19:13:32.483Z,100082.66
2023-02-14T19:16:51.263Z,100079.75
2023-02-14T19:20:00.097Z,100081.94
2023-02-14T19:23:06.668Z,100076.28
2023-02-14T19:26:15.169Z,100081.38
2023-02-14T19:29:27.455Z,100069.59
2023-02-14T19:32:34.105Z,100074.59
2023-02-14T19:35:40.393Z,100069.16
2023-02-14T19:38:51.351Z,100068.91
2023-02-14T19:41:57.151Z,100066.94
2023-02-14T19:45:09.950Z,100075.50
2023-02-14T19:48:15.928Z,100078.00
2023-02-14T19:51:29.073Z,100083.00
2023-02-14T19:54:34.995Z,100070.66
2023-02-14T19:57:42.493Z,100086.03
2023-02-14T20:00:59.629Z,100090.31
2023-02-14T20:04:10.332Z,100078.94
2023-02-14T20:07:16.893Z,100083.53
2023-02-14T20:10:24.003Z,100083.44
2023-02-14T20:13:31.384Z,100092.22
2023-02-14T20:16:41.688Z,100074.44
2023-02-14T20:19:47.585Z,100079.56
2023-02-14T20:22:54.139Z,100083.88
2023-02-14T20:26:02.923Z,100073.72
2023-02-14T20:29:12.828Z,100080.09
2023-02-14T20:32:22.018Z,100077.63
2023-02-14T20:35:31.774Z,100081.50
2023-02-14T20:38:38.541Z,100079.03
2023-02-14T20:41:50.210Z,100073.25
2023-02-14T20:44:56.200Z,100072.00
2023-02-14T20:48:07.262Z,100079.63
2023-02-14T20:51:14.994Z,100084.84
2023-02-14T20:54:24.723Z,100076.91
2023-02-14T20:57:32.420Z,100077.63
2023-02-14T21:00:39.470Z,100085.28
2023-02-14T21:03:51.228Z,100074.38
2023-02-14T21:07:00.399Z,100059.47
2023-02-14T21:10:07.417Z,100074.28
2023-02-14T21:13:14.155Z,100073.25
2023-02-14T21:16:22.850Z,100065.53
2023-02-14T21:19:31.996Z,100062.72
2023-02-14T21:22:37.942Z,100070.25
2023-02-14T21:25:45.084Z,100053.22
2023-02-14T21:29:01.141Z,100061.88
2023-02-14T21:32:10.418Z,100056.25
2023-02-14T21:35:19.345Z,100050.22
2023-02-14T21:38:26.507Z,100055.94
2023-02-14T21:41:34.696Z,100047.25
2023-02-14T21:44:54.366Z,100045.06
2023-02-14T21:48:12.540Z,100038.56
2023-02-14T21:51:23.115Z,100044.63
2023-02-14T21:54:29.037Z,100036.69
2023-02-14T21:57:35.878Z,100035.00
2023-02-14T22:00:48.260Z,100032.38
2023-02-14T22:03:57.028Z,100026.31
2023-02-14T22:07:05.564Z,100025.28
2023-02-14T22:10:13.972Z,100024.97
2023-02-14T22:13:19.775Z,100028.03
2023-02-14T22:16:28.546Z,100022.78
2023-02-14T22:19:36.930Z,100024.88
2023-02-14T22:22:47.363Z,100020.72
2023-02-14T22:25:57.525Z,100022.38
2023-02-14T22:29:06.137Z,100012.47
2023-02-14T22:32:12.054Z,100020.81
2023-02-14T22:35:19.166Z,100013.94
2023-02-14T22:38:28.258Z,100015.91
2023-02-14T22:41:37.880Z,100006.09
2023-02-14T22:44:43.908Z,100013.69
2023-02-14T22:47:50.533Z,100016.00
2023-02-14T22:50:56.266Z,100020.75
2023-02-14T22:54:08.631Z,100015.22
2023-02-14T22:57:17.032Z,100001.31
2023-02-14T23:00:25.051Z,99988.25
2023-02-14T23:03:31.099Z,100002.84
2023-02-14T23:06:40.286Z,100007.56
2023-02-14T23:09:48.672Z,100001.00
2023-02-14T23:13:07.816Z,100005.59
2023-02-14T23:16:25.962Z,99993.50
2023-02-14T23:19:49.327Z,99987.13
2023-02-14T23:22:54.999Z,99990.25
2023-02-14T23:26:04.334Z,99995.22
2023-02-14T23:29:10.108Z,99989.59
2023-02-14T23:32:17.619Z,99986.28
2023-02-14T23:35:23.399Z,99987.19
2023-02-14T23:38:29.974Z,99986.03
2023-02-14T23:41:50.373Z,99988.47
2023-02-14T23:45:17.004Z,99981.75
2023-02-14T23:48:22.798Z,99982.09
2023-02-14T23:51:29.367Z,99978.00
2023-02-14T23:54:35.842Z,99980.84
2023-02-14T23:57:44.959Z,99978.00
